CDT,Max TemperatureF,Mean TemperatureF,Min TemperatureF,Max Dew PointF,MeanDew PointF,Min DewpointF,Max Humidity, Mean Humidity, Min Humidity, Max Sea Level PressureIn, Mean Sea Level PressureIn, Min Sea Level PressureIn, Max VisibilityMiles, Mean VisibilityMiles, Min VisibilityMiles, Max Wind SpeedMPH, Mean Wind SpeedMPH, Max Gust SpeedMPH,PrecipitationIn, CloudCover, Events, WindDirDegrees
2013-5-1,73,56,39,63,51,36,86,75,63,30.26,29.96,29.73,10,10,8,33,16,49,0.25,6,Rain-Thunderstorm,40
2013-5-2,51,43,35,38,33,24,100,68,36,30.49,30.41,30.24,10,7,2,32,20,43,0.70,7,Rain-Snow-Thunderstorm,1
2013-5-3,60,48,36,32,30,27,82,55,28,30.40,30.19,30.01,10,10,10,29,14,41,0.00,2,,338
2013-5-4,50,45,40,41,35,28,89,71,53,30.12,30.00,29.93,10,10,9,28,17,35,T,8,Rain,348
2013-5-5,63,53,43,50,45,39,100,82,64,30.18,30.13,30.09,10,8,2,20,10,24,0.01,7,Rain,343
2013-5-6,69,56,42,52,48,42,100,77,53,30.16,30.10,30.03,10,9,5,13,4,17,0.00,5,,360
2013-5-7,72,60,48,57,52,48,93,73,53,30.08,30.01,29.89,10,10,7,17,8,23,T,6,,151
2013-5-8,78,68,58,65,58,48,100,78,56,30.00,29.89,29.78,10,9,2,35,16,43,0.87,7,Rain-Thunderstorm,131
2013-5-9,74,65,55,60,56,52,100,79,57,30.01,29.91,29.78,10,10,10,31,10,38,0.12,5,Rain-Thunderstorm,305
2013-5-10,71,61,51,56,53,48,100,76,51,30.11,30.04,29.99,10,9,6,18,10,29,0.00,4,,356
2013-5-11,69,57,45,52,42,32,93,61,29,30.27,30.18,30.10,10,10,9,28,10,37,0.00,0,,348
2013-5-12,70,55,40,46,41,34,92,65,37,30.29,30.19,30.07,10,10,10,21,10,28,0.00,2,Thunderstorm,141
2013-5-13,83,66,49,61,52,43,80,60,40,30.09,30.02,29.93,10,10,10,15,7,24,0.00,2,,156
2013-5-14,89,72,55,58,54,48,83,56,29,29.92,29.88,29.80,10,10,10,28,14,36,0.00,2,,192
2013-5-15,81,71,60,67,61,55,93,74,54,29.86,29.83,29.78,10,10,7,25,12,31,T,4,Rain,171
2013-5-16,77,69,60,65,62,60,100,80,60,29.88,29.83,29.77,10,9,5,16,7,41,0.00,6,,114
2013-5-17,82,70,57,66,62,57,100,79,58,29.92,29.86,29.81,10,6,0,17,7,25,0.00,3,Fog,139
2013-5-18,85,78,70,74,70,57,100,79,57,29.87,29.75,29.59,10,6,3,24,14,33,T,7,Rain,135
2013-5-19,83,73,62,72,64,59,100,84,68,29.78,29.61,29.49,10,8,0,33,11,48,1.37,6,Fog-Rain-Hail-Thunderstorm,172
2013-5-20,82,69,56,61,57,54,93,68,42,29.77,29.70,29.63,10,10,10,16,5,25,T,4,,307
2013-5-21,73,65,56,52,50,48,77,59,41,29.85,29.79,29.72,10,10,10,15,8,22,0.00,4,,291
2013-5-22,78,66,53,55,51,48,83,63,43,29.93,29.86,29.80,10,10,10,16,8,32,0.00,2,,326
2013-5-23,73,65,57,57,54,50,80,67,53,30.15,30.07,29.94,10,10,10,20,10,24,0.00,5,,58
2013-5-24,78,68,58,67,61,54,87,78,68,30.22,30.14,30.04,10,10,9,21,13,26,0.00,6,,130
2013-5-25,83,75,66,68,66,63,93,76,58,30.09,30.03,29.93,10,10,7,26,17,33,0.00,6,,174
2013-5-26,83,75,66,70,67,64,93,79,65,29.98,29.91,29.83,10,9,6,28,17,35,0.00,6,,173
2013-5-27,83,77,71,72,69,68,93,79,65,29.80,29.70,29.57,10,9,6,36,21,46,0.00,7,,172
2013-5-28,84,78,71,73,70,67,93,80,67,29.76,29.65,29.57,10,10,7,35,19,41,0.00,7,,177
2013-5-29,83,73,63,70,67,60,93,80,67,29.70,29.62,29.53,10,9,6,41,23,51,0.22,7,Rain-Thunderstorm,170
2013-5-30,79,69,59,68,61,57,100,77,54,29.73,29.61,29.52,10,8,2,35,11,43,1.88,6,Rain-Thunderstorm,96
2013-5-31,83,75,66,70,67,57,100,73,45,29.76,29.68,29.59,10,10,4,21,8,26,0.00,6,,351